sensor_id;sensor_type;location;lat;lon;timestamp;P1;durP1;ratioP1;P2;durP2;ratioP2
74679;SDS011;63211;48.548;2.704;2023-09-19T00:01:32;0.50;;;0.15;;
74679;SDS011;63211;48.548;2.704;2023-09-19T00:04:00;0.93;;;0.05;;
74679;SDS011;63211;48.548;2.704;2023-09-19T00:06:28;0.50;;;0.20;;
74679;SDS011;63211;48.548;2.704;2023-09-19T00:08:56;0.17;;;0.15;;
74679;SDS011;63211;48.548;2.704;2023-09-19T00:11:24;0.50;;;0.20;;
74679;SDS011;63211;48.548;2.704;2023-09-19T00:13:51;1.55;;;0.20;;
74679;SDS011;63211;48.548;2.704;2023-09-19T00:16:19;0.50;;;0.20;;
74679;SDS011;63211;48.548;2.704;2023-09-19T00:18:46;0.63;;;0.20;;
74679;SDS011;63211;48.548;2.704;2023-09-19T00:21:15;0.30;;;0.10;;
74679;SDS011;63211;48.548;2.704;2023-09-19T00:23:41;0.40;;;0.20;;
74679;SDS011;63211;48.548;2.704;2023-09-19T00:26:08;0.47;;;0.20;;
74679;SDS011;63211;48.548;2.704;2023-09-19T00:28:35;0.38;;;0.20;;
74679;SDS011;63211;48.548;2.704;2023-09-19T00:31:01;0.30;;;0.10;;
74679;SDS011;63211;48.548;2.704;2023-09-19T00:33:30;1.95;;;0.30;;
74679;SDS011;63211;48.548;2.704;2023-09-19T00:35:56;0.47;;;0.20;;
74679;SDS011;63211;48.548;2.704;2023-09-19T00:38:25;0.98;;;0.30;;
74679;SDS011;63211;48.548;2.704;2023-09-19T00:40:53;0.63;;;0.10;;
74679;SDS011;63211;48.548;2.704;2023-09-19T00:43:22;0.82;;;0.10;;
74679;SDS011;63211;48.548;2.704;2023-09-19T00:45:50;0.98;;;0.30;;
74679;SDS011;63211;48.548;2.704;2023-09-19T00:48:18;0.50;;;0.20;;
74679;SDS011;63211;48.548;2.704;2023-09-19T00:50:46;0.08;;;0.03;;
74679;SDS011;63211;48.548;2.704;2023-09-19T00:53:14;0.65;;;0.20;;
74679;SDS011;63211;48.548;2.704;2023-09-19T00:55:45;1.40;;;0.28;;
74679;SDS011;63211;48.548;2.704;2023-09-19T00:58:12;1.20;;;0.30;;
74679;SDS011;63211;48.548;2.704;2023-09-19T01:00:38;0.38;;;0.10;;
74679;SDS011;63211;48.548;2.704;2023-09-19T01:03:09;0.88;;;0.25;;
74679;SDS011;63211;48.548;2.704;2023-09-19T01:05:38;0.50;;;0.20;;
74679;SDS011;63211;48.548;2.704;2023-09-19T01:08:05;0.40;;;0.10;;
74679;SDS011;63211;48.548;2.704;2023-09-19T01:10:32;0.45;;;0.17;;
74679;SDS011;63211;48.548;2.704;2023-09-19T01:13:02;0.55;;;0.20;;
74679;SDS011;63211;48.548;2.704;2023-09-19T01:15:38;0.80;;;0.38;;
74679;SDS011;63211;48.548;2.704;2023-09-19T01:18:26;0.45;;;0.10;;
74679;SDS011;63211;48.548;2.704;2023-09-19T01:20:57;0.68;;;0.17;;
74679;SDS011;63211;48.548;2.704;2023-09-19T01:23:35;0.22;;;0.10;;
74679;SDS011;63211;48.548;2.704;2023-09-19T01:26:26;0.40;;;0.10;;
74679;SDS011;63211;48.548;2.704;2023-09-19T01:29:06;0.95;;;0.10;;
74679;SDS011;63211;48.548;2.704;2023-09-19T01:31:46;0.75;;;0.20;;
74679;SDS011;63211;48.548;2.704;2023-09-19T01:36:43;0.28;;;0.13;;
74679;SDS011;63211;48.548;2.704;2023-09-19T01:39:11;0.40;;;0.10;;
74679;SDS011;63211;48.548;2.704;2023-09-19T01:41:45;0.32;;;0.10;;
74679;SDS011;63211;48.548;2.704;2023-09-19T01:44:25;1.02;;;0.10;;
74679;SDS011;63211;48.548;2.704;2023-09-19T01:46:59;0.77;;;0.10;;
74679;SDS011;63211;48.548;2.704;2023-09-19T01:49:33;0.90;;;0.20;;
74679;SDS011;63211;48.548;2.704;2023-09-19T01:52:09;0.68;;;0.17;;
74679;SDS011;63211;48.548;2.704;2023-09-19T01:54:41;0.25;;;0.10;;
74679;SDS011;63211;48.548;2.704;2023-09-19T01:57:16;1.25;;;0.40;;
74679;SDS011;63211;48.548;2.704;2023-09-19T01:59:49;0.30;;;0.00;;
74679;SDS011;63211;48.548;2.704;2023-09-19T02:02:22;0.50;;;0.20;;
74679;SDS011;63211;48.548;2.704;2023-09-19T02:04:51;2.30;;;0.40;;
74679;SDS011;63211;48.548;2.704;2023-09-19T02:07:18;0.20;;;0.10;;
74679;SDS011;63211;48.548;2.704;2023-09-19T02:09:45;0.52;;;0.20;;
74679;SDS011;63211;48.548;2.704;2023-09-19T02:12:13;0.82;;;0.00;;
74679;SDS011;63211;48.548;2.704;2023-09-19T02:14:40;0.35;;;0.10;;
74679;SDS011;63211;48.548;2.704;2023-09-19T02:17:07;0.75;;;0.10;;
74679;SDS011;63211;48.548;2.704;2023-09-19T02:19:37;0.70;;;0.20;;
74679;SDS011;63211;48.548;2.704;2023-09-19T02:22:06;0.17;;;0.00;;
74679;SDS011;63211;48.548;2.704;2023-09-19T02:24:35;0.47;;;0.25;;
74679;SDS011;63211;48.548;2.704;2023-09-19T02:27:03;0.93;;;0.30;;
74679;SDS011;63211;48.548;2.704;2023-09-19T02:29:31;0.52;;;0.30;;
74679;SDS011;63211;48.548;2.704;2023-09-19T02:31:59;0.85;;;0.35;;
74679;SDS011;63211;48.548;2.704;2023-09-19T02:34:26;0.43;;;0.10;;
74679;SDS011;63211;48.548;2.704;2023-09-19T02:36:54;0.35;;;0.20;;
74679;SDS011;63211;48.548;2.704;2023-09-19T02:39:21;0.65;;;0.25;;
74679;SDS011;63211;48.548;2.704;2023-09-19T02:41:48;0.60;;;0.22;;
74679;SDS011;63211;48.548;2.704;2023-09-19T02:44:15;0.85;;;0.20;;
74679;SDS011;63211;48.548;2.704;2023-09-19T02:46:42;0.45;;;0.10;;
74679;SDS011;63211;48.548;2.704;2023-09-19T02:49:08;2.38;;;0.25;;
74679;SDS011;63211;48.548;2.704;2023-09-19T02:51:35;0.88;;;0.22;;
74679;SDS011;63211;48.548;2.704;2023-09-19T02:54:03;0.22;;;0.10;;
74679;SDS011;63211;48.548;2.704;2023-09-19T02:56:29;0.85;;;0.10;;
74679;SDS011;63211;48.548;2.704;2023-09-19T02:58:57;0.88;;;0.40;;
74679;SDS011;63211;48.548;2.704;2023-09-19T03:01:25;0.30;;;0.10;;
74679;SDS011;63211;48.548;2.704;2023-09-19T03:03:52;0.32;;;0.20;;
74679;SDS011;63211;48.548;2.704;2023-09-19T03:06:18;0.25;;;0.20;;
74679;SDS011;63211;48.548;2.704;2023-09-19T03:08:45;1.58;;;0.30;;
74679;SDS011;63211;48.548;2.704;2023-09-19T03:11:15;0.65;;;0.28;;
74679;SDS011;63211;48.548;2.704;2023-09-19T03:13:44;0.70;;;0.15;;
74679;SDS011;63211;48.548;2.704;2023-09-19T03:16:11;0.20;;;0.10;;
74679;SDS011;63211;48.548;2.704;2023-09-19T03:18:39;1.23;;;0.20;;
74679;SDS011;63211;48.548;2.704;2023-09-19T03:21:06;0.85;;;0.40;;
74679;SDS011;63211;48.548;2.704;2023-09-19T03:23:33;1.17;;;0.20;;
74679;SDS011;63211;48.548;2.704;2023-09-19T03:25:59;0.32;;;0.20;;
74679;SDS011;63211;48.548;2.704;2023-09-19T03:28:27;0.30;;;0.10;;
74679;SDS011;63211;48.548;2.704;2023-09-19T03:31:00;0.45;;;0.25;;
74679;SDS011;63211;48.548;2.704;2023-09-19T03:33:28;0.22;;;0.10;;
74679;SDS011;63211;48.548;2.704;2023-09-19T03:35:56;0.63;;;0.05;;
74679;SDS011;63211;48.548;2.704;2023-09-19T03:38:24;0.10;;;0.05;;
74679;SDS011;63211;48.548;2.704;2023-09-19T03:40:50;0.25;;;0.10;;
74679;SDS011;63211;48.548;2.704;2023-09-19T03:43:17;0.47;;;0.10;;
74679;SDS011;63211;48.548;2.704;2023-09-19T03:45:45;1.02;;;0.22;;
74679;SDS011;63211;48.548;2.704;2023-09-19T03:48:12;1.13;;;0.10;;
74679;SDS011;63211;48.548;2.704;2023-09-19T03:50:39;0.30;;;0.15;;
74679;SDS011;63211;48.548;2.704;2023-09-19T03:53:06;0.43;;;0.13;;
74679;SDS011;63211;48.548;2.704;2023-09-19T03:55:32;0.30;;;0.17;;
74679;SDS011;63211;48.548;2.704;2023-09-19T03:58:00;0.52;;;0.10;;
74679;SDS011;63211;48.548;2.704;2023-09-19T04:00:27;0.10;;;0.10;;
74679;SDS011;63211;48.548;2.704;2023-09-19T04:02:56;2.95;;;0.55;;
74679;SDS011;63211;48.548;2.704;2023-09-19T04:05:22;0.28;;;0.10;;
74679;SDS011;63211;48.548;2.704;2023-09-19T04:07:49;0.28;;;0.10;;
74679;SDS011;63211;48.548;2.704;2023-09-19T04:10:16;0.77;;;0.10;;
74679;SDS011;63211;48.548;2.704;2023-09-19T04:12:50;0.82;;;0.17;;
74679;SDS011;63211;48.548;2.704;2023-09-19T04:15:18;0.47;;;0.13;;
74679;SDS011;63211;48.548;2.704;2023-09-19T04:17:44;0.90;;;0.08;;
74679;SDS011;63211;48.548;2.704;2023-09-19T04:20:12;0.38;;;0.22;;
74679;SDS011;63211;48.548;2.704;2023-09-19T04:22:39;0.52;;;0.20;;
74679;SDS011;63211;48.548;2.704;2023-09-19T04:25:06;2.50;;;0.30;;
74679;SDS011;63211;48.548;2.704;2023-09-19T04:27:34;0.95;;;0.17;;
74679;SDS011;63211;48.548;2.704;2023-09-19T04:30:00;0.60;;;0.22;;
74679;SDS011;63211;48.548;2.704;2023-09-19T04:32:30;0.20;;;0.10;;
74679;SDS011;63211;48.548;2.704;2023-09-19T04:34:57;0.00;;;0.00;;
74679;SDS011;63211;48.548;2.704;2023-09-19T04:37:28;0.52;;;0.10;;
74679;SDS011;63211;48.548;2.704;2023-09-19T04:39:55;0.20;;;0.00;;
74679;SDS011;63211;48.548;2.704;2023-09-19T04:42:21;0.57;;;0.20;;
74679;SDS011;63211;48.548;2.704;2023-09-19T04:44:49;1.20;;;0.28;;
74679;SDS011;63211;48.548;2.704;2023-09-19T04:47:18;0.65;;;0.20;;
74679;SDS011;63211;48.548;2.704;2023-09-19T04:49:46;0.40;;;0.25;;
74679;SDS011;63211;48.548;2.704;2023-09-19T04:52:12;0.63;;;0.13;;
74679;SDS011;63211;48.548;2.704;2023-09-19T04:54:41;0.73;;;0.17;;
74679;SDS011;63211;48.548;2.704;2023-09-19T04:57:08;0.82;;;0.10;;
74679;SDS011;63211;48.548;2.704;2023-09-19T04:59:34;0.60;;;0.10;;
74679;SDS011;63211;48.548;2.704;2023-09-19T05:02:01;0.82;;;0.10;;
74679;SDS011;63211;48.548;2.704;2023-09-19T05:04:28;1.48;;;0.30;;
74679;SDS011;63211;48.548;2.704;2023-09-19T05:06:54;0.63;;;0.10;;
74679;SDS011;63211;48.548;2.704;2023-09-19T05:09:21;0.70;;;0.20;;
74679;SDS011;63211;48.548;2.704;2023-09-19T05:11:49;2.78;;;0.38;;
74679;SDS011;63211;48.548;2.704;2023-09-19T05:14:16;3.17;;;0.47;;
74679;SDS011;63211;48.548;2.704;2023-09-19T05:16:43;0.82;;;0.35;;
74679;SDS011;63211;48.548;2.704;2023-09-19T05:19:09;0.30;;;0.20;;
74679;SDS011;63211;48.548;2.704;2023-09-19T05:21:37;1.83;;;0.30;;
74679;SDS011;63211;48.548;2.704;2023-09-19T05:24:04;1.73;;;0.43;;
74679;SDS011;63211;48.548;2.704;2023-09-19T05:26:31;3.42;;;1.05;;
74679;SDS011;63211;48.548;2.704;2023-09-19T05:28:59;8.85;;;1.70;;
74679;SDS011;63211;48.548;2.704;2023-09-19T05:31:28;14.57;;;2.70;;
74679;SDS011;63211;48.548;2.704;2023-09-19T05:33:56;23.52;;;4.47;;
74679;SDS011;63211;48.548;2.704;2023-09-19T05:36:23;30.60;;;5.93;;
74679;SDS011;63211;48.548;2.704;2023-09-19T05:38:50;17.10;;;3.10;;
74679;SDS011;63211;48.548;2.704;2023-09-19T05:41:18;14.60;;;3.92;;
74679;SDS011;63211;48.548;2.704;2023-09-19T05:43:46;10.68;;;2.10;;
74679;SDS011;63211;48.548;2.704;2023-09-19T05:46:17;8.98;;;2.15;;
74679;SDS011;63211;48.548;2.704;2023-09-19T05:48:44;9.95;;;2.15;;
74679;SDS011;63211;48.548;2.704;2023-09-19T05:51:12;15.18;;;3.28;;
74679;SDS011;63211;48.548;2.704;2023-09-19T05:53:39;15.45;;;2.45;;
74679;SDS011;63211;48.548;2.704;2023-09-19T05:56:08;10.30;;;1.85;;
74679;SDS011;63211;48.548;2.704;2023-09-19T05:58:36;6.00;;;1.55;;
74679;SDS011;63211;48.548;2.704;2023-09-19T06:01:03;5.95;;;1.55;;
74679;SDS011;63211;48.548;2.704;2023-09-19T06:03:33;10.27;;;2.00;;
74679;SDS011;63211;48.548;2.704;2023-09-19T06:06:00;7.18;;;1.40;;
74679;SDS011;63211;48.548;2.704;2023-09-19T06:08:27;4.18;;;1.05;;
74679;SDS011;63211;48.548;2.704;2023-09-19T06:10:55;9.68;;;0.90;;
74679;SDS011;63211;48.548;2.704;2023-09-19T06:13:22;3.40;;;0.82;;
74679;SDS011;63211;48.548;2.704;2023-09-19T06:15:51;5.22;;;1.05;;
74679;SDS011;63211;48.548;2.704;2023-09-19T06:18:18;4.53;;;1.17;;
74679;SDS011;63211;48.548;2.704;2023-09-19T06:20:47;6.03;;;1.08;;
74679;SDS011;63211;48.548;2.704;2023-09-19T06:23:16;6.50;;;0.80;;
74679;SDS011;63211;48.548;2.704;2023-09-19T06:25:42;4.70;;;1.48;;
74679;SDS011;63211;48.548;2.704;2023-09-19T06:28:09;4.22;;;0.90;;
74679;SDS011;63211;48.548;2.704;2023-09-19T06:30:37;2.25;;;0.80;;
74679;SDS011;63211;48.548;2.704;2023-09-19T06:33:05;6.38;;;0.90;;
74679;SDS011;63211;48.548;2.704;2023-09-19T06:35:32;4.20;;;0.90;;
74679;SDS011;63211;48.548;2.704;2023-09-19T06:38:03;3.92;;;0.93;;
74679;SDS011;63211;48.548;2.704;2023-09-19T06:40:30;4.45;;;0.90;;
74679;SDS011;63211;48.548;2.704;2023-09-19T06:42:57;2.85;;;0.75;;
74679;SDS011;63211;48.548;2.704;2023-09-19T06:45:27;3.25;;;0.70;;
74679;SDS011;63211;48.548;2.704;2023-09-19T06:47:54;3.13;;;0.68;;
74679;SDS011;63211;48.548;2.704;2023-09-19T06:50:23;1.27;;;0.50;;
74679;SDS011;63211;48.548;2.704;2023-09-19T06:52:50;4.40;;;1.13;;
74679;SDS011;63211;48.548;2.704;2023-09-19T06:55:20;3.38;;;0.90;;
74679;SDS011;63211;48.548;2.704;2023-09-19T06:57:50;2.47;;;0.52;;
74679;SDS011;63211;48.548;2.704;2023-09-19T07:00:19;5.90;;;1.00;;
74679;SDS011;63211;48.548;2.704;2023-09-19T07:02:54;4.18;;;0.90;;
74679;SDS011;63211;48.548;2.704;2023-09-19T07:05:21;4.25;;;0.95;;
74679;SDS011;63211;48.548;2.704;2023-09-19T07:07:48;2.95;;;0.60;;
74679;SDS011;63211;48.548;2.704;2023-09-19T07:10:14;2.30;;;0.88;;
74679;SDS011;63211;48.548;2.704;2023-09-19T07:12:42;1.65;;;0.68;;
74679;SDS011;63211;48.548;2.704;2023-09-19T07:15:09;3.40;;;0.63;;
74679;SDS011;63211;48.548;2.704;2023-09-19T07:17:36;2.63;;;0.73;;
74679;SDS011;63211;48.548;2.704;2023-09-19T07:20:03;4.78;;;0.75;;
74679;SDS011;63211;48.548;2.704;2023-09-19T07:25:00;3.42;;;0.70;;
74679;SDS011;63211;48.548;2.704;2023-09-19T07:27:26;1.60;;;0.60;;
74679;SDS011;63211;48.548;2.704;2023-09-19T07:29:54;4.40;;;0.80;;
74679;SDS011;63211;48.548;2.704;2023-09-19T07:32:21;3.67;;;0.57;;
74679;SDS011;63211;48.548;2.704;2023-09-19T07:34:49;2.30;;;0.93;;
74679;SDS011;63211;48.548;2.704;2023-09-19T07:37:15;5.57;;;0.82;;
74679;SDS011;63211;48.548;2.704;2023-09-19T07:39:42;4.57;;;1.00;;
74679;SDS011;63211;48.548;2.704;2023-09-19T07:42:09;3.20;;;0.93;;
74679;SDS011;63211;48.548;2.704;2023-09-19T07:44:42;2.97;;;0.90;;
74679;SDS011;63211;48.548;2.704;2023-09-19T07:47:13;3.58;;;0.80;;
74679;SDS011;63211;48.548;2.704;2023-09-19T07:49:40;2.95;;;0.82;;
74679;SDS011;63211;48.548;2.704;2023-09-19T07:52:07;6.20;;;1.30;;
74679;SDS011;63211;48.548;2.704;2023-09-19T07:54:34;5.32;;;0.85;;
74679;SDS011;63211;48.548;2.704;2023-09-19T07:57:01;1.90;;;0.60;;
74679;SDS011;63211;48.548;2.704;2023-09-19T07:59:28;5.65;;;1.20;;
74679;SDS011;63211;48.548;2.704;2023-09-19T08:01:54;3.22;;;0.95;;
74679;SDS011;63211;48.548;2.704;2023-09-19T08:04:22;4.80;;;0.88;;
74679;SDS011;63211;48.548;2.704;2023-09-19T08:06:51;4.05;;;1.08;;
74679;SDS011;63211;48.548;2.704;2023-09-19T08:09:18;2.05;;;0.90;;
74679;SDS011;63211;48.548;2.704;2023-09-19T08:11:45;2.88;;;0.80;;
74679;SDS011;63211;48.548;2.704;2023-09-19T08:14:12;4.82;;;0.93;;
74679;SDS011;63211;48.548;2.704;2023-09-19T08:16:39;3.40;;;0.77;;
74679;SDS011;63211;48.548;2.704;2023-09-19T08:19:07;3.30;;;1.00;;
74679;SDS011;63211;48.548;2.704;2023-09-19T08:21:37;3.47;;;0.70;;
74679;SDS011;63211;48.548;2.704;2023-09-19T08:24:03;2.78;;;0.82;;
74679;SDS011;63211;48.548;2.704;2023-09-19T08:26:31;3.03;;;1.48;;
74679;SDS011;63211;48.548;2.704;2023-09-19T08:28:57;4.20;;;0.60;;
74679;SDS011;63211;48.548;2.704;2023-09-19T08:31:24;2.65;;;0.77;;
74679;SDS011;63211;48.548;2.704;2023-09-19T08:33:51;4.47;;;0.77;;
74679;SDS011;63211;48.548;2.704;2023-09-19T08:36:18;2.40;;;0.80;;
74679;SDS011;63211;48.548;2.704;2023-09-19T08:38:46;2.22;;;0.60;;
74679;SDS011;63211;48.548;2.704;2023-09-19T08:41:14;1.98;;;0.50;;
74679;SDS011;63211;48.548;2.704;2023-09-19T08:43:43;3.42;;;0.70;;
74679;SDS011;63211;48.548;2.704;2023-09-19T08:46:14;1.35;;;0.50;;
74679;SDS011;63211;48.548;2.704;2023-09-19T08:48:45;3.85;;;0.60;;
74679;SDS011;63211;48.548;2.704;2023-09-19T08:51:18;1.95;;;0.60;;
74679;SDS011;63211;48.548;2.704;2023-09-19T08:53:51;2.55;;;0.60;;
74679;SDS011;63211;48.548;2.704;2023-09-19T08:56:18;7.28;;;0.98;;
74679;SDS011;63211;48.548;2.704;2023-09-19T08:58:48;4.00;;;0.98;;
74679;SDS011;63211;48.548;2.704;2023-09-19T09:01:18;3.50;;;0.60;;
74679;SDS011;63211;48.548;2.704;2023-09-19T09:03:49;1.75;;;0.40;;
74679;SDS011;63211;48.548;2.704;2023-09-19T09:06:17;1.50;;;0.57;;
74679;SDS011;63211;48.548;2.704;2023-09-19T09:08:45;4.38;;;0.70;;
74679;SDS011;63211;48.548;2.704;2023-09-19T09:11:14;1.75;;;0.60;;
74679;SDS011;63211;48.548;2.704;2023-09-19T09:13:42;2.42;;;0.73;;
74679;SDS011;63211;48.548;2.704;2023-09-19T09:16:10;2.72;;;0.57;;
74679;SDS011;63211;48.548;2.704;2023-09-19T09:18:37;2.40;;;0.68;;
74679;SDS011;63211;48.548;2.704;2023-09-19T09:21:04;2.58;;;0.57;;
74679;SDS011;63211;48.548;2.704;2023-09-19T09:23:31;1.58;;;0.38;;
74679;SDS011;63211;48.548;2.704;2023-09-19T09:25:58;2.70;;;0.43;;
74679;SDS011;63211;48.548;2.704;2023-09-19T09:28:29;3.70;;;0.40;;
74679;SDS011;63211;48.548;2.704;2023-09-19T09:33:26;3.33;;;0.73;;
74679;SDS011;63211;48.548;2.704;2023-09-19T09:35:54;2.60;;;0.65;;
74679;SDS011;63211;48.548;2.704;2023-09-19T09:38:23;2.78;;;0.70;;
74679;SDS011;63211;48.548;2.704;2023-09-19T09:40:52;2.45;;;0.40;;
74679;SDS011;63211;48.548;2.704;2023-09-19T09:43:30;2.00;;;0.60;;
74679;SDS011;63211;48.548;2.704;2023-09-19T09:46:07;3.20;;;0.50;;
74679;SDS011;63211;48.548;2.704;2023-09-19T09:48:58;4.18;;;1.13;;
74679;SDS011;63211;48.548;2.704;2023-09-19T09:51:44;1.25;;;0.45;;
74679;SDS011;63211;48.548;2.704;2023-09-19T09:54:22;3.03;;;0.52;;
74679;SDS011;63211;48.548;2.704;2023-09-19T09:56:52;1.75;;;0.45;;
74679;SDS011;63211;48.548;2.704;2023-09-19T09:59:25;3.00;;;0.43;;
74679;SDS011;63211;48.548;2.704;2023-09-19T10:02:12;2.80;;;0.43;;
74679;SDS011;63211;48.548;2.704;2023-09-19T10:04:41;3.72;;;0.47;;
74679;SDS011;63211;48.548;2.704;2023-09-19T10:07:24;2.03;;;0.40;;
74679;SDS011;63211;48.548;2.704;2023-09-19T10:09:58;2.30;;;0.60;;
74679;SDS011;63211;48.548;2.704;2023-09-19T10:12:34;1.75;;;0.40;;
74679;SDS011;63211;48.548;2.704;2023-09-19T10:15:06;2.17;;;0.45;;
74679;SDS011;63211;48.548;2.704;2023-09-19T10:17:36;2.03;;;0.47;;
74679;SDS011;63211;48.548;2.704;2023-09-19T10:20:03;1.60;;;0.40;;
74679;SDS011;63211;48.548;2.704;2023-09-19T10:22:43;6.47;;;0.60;;
74679;SDS011;63211;48.548;2.704;2023-09-19T10:25:22;2.95;;;0.60;;
74679;SDS011;63211;48.548;2.704;2023-09-19T10:27:51;2.80;;;0.38;;
74679;SDS011;63211;48.548;2.704;2023-09-19T10:30:21;3.58;;;0.40;;
74679;SDS011;63211;48.548;2.704;2023-09-19T10:33:03;1.30;;;0.38;;
74679;SDS011;63211;48.548;2.704;2023-09-19T10:35:31;3.38;;;0.45;;
74679;SDS011;63211;48.548;2.704;2023-09-19T10:37:59;1.00;;;0.50;;
74679;SDS011;63211;48.548;2.704;2023-09-19T10:40:28;0.75;;;0.35;;
74679;SDS011;63211;48.548;2.704;2023-09-19T10:43:00;0.90;;;0.50;;
74679;SDS011;63211;48.548;2.704;2023-09-19T10:45:32;2.63;;;0.38;;
74679;SDS011;63211;48.548;2.704;2023-09-19T10:48:00;3.42;;;0.57;;
74679;SDS011;63211;48.548;2.704;2023-09-19T10:50:30;2.53;;;0.70;;
74679;SDS011;63211;48.548;2.704;2023-09-19T10:53:00;3.25;;;0.40;;
74679;SDS011;63211;48.548;2.704;2023-09-19T10:55:32;2.28;;;0.40;;
74679;SDS011;63211;48.548;2.704;2023-09-19T10:58:00;1.70;;;0.30;;
74679;SDS011;63211;48.548;2.704;2023-09-19T11:00:29;2.08;;;0.60;;
74679;SDS011;63211;48.548;2.704;2023-09-19T11:06:08;1.60;;;0.47;;
74679;SDS011;63211;48.548;2.704;2023-09-19T11:08:55;2.20;;;0.63;;
74679;SDS011;63211;48.548;2.704;2023-09-19T11:11:41;1.00;;;0.30;;
74679;SDS011;63211;48.548;2.704;2023-09-19T11:14:14;2.47;;;0.47;;
74679;SDS011;63211;48.548;2.704;2023-09-19T11:19:24;1.55;;;0.30;;
74679;SDS011;63211;48.548;2.704;2023-09-19T11:25:45;1.75;;;0.40;;
74679;SDS011;63211;48.548;2.704;2023-09-19T11:28:32;1.85;;;0.40;;
74679;SDS011;63211;48.548;2.704;2023-09-19T11:40:29;1.40;;;0.40;;
74679;SDS011;63211;48.548;2.704;2023-09-19T11:42:55;0.70;;;0.30;;
74679;SDS011;63211;48.548;2.704;2023-09-19T11:48:26;1.45;;;0.30;;
74679;SDS011;63211;48.548;2.704;2023-09-19T11:50:54;1.10;;;0.20;;
74679;SDS011;63211;48.548;2.704;2023-09-19T11:53:24;2.08;;;0.57;;
74679;SDS011;63211;48.548;2.704;2023-09-19T11:55:59;0.70;;;0.40;;
74679;SDS011;63211;48.548;2.704;2023-09-19T11:58:26;1.48;;;0.50;;
74679;SDS011;63211;48.548;2.704;2023-09-19T12:00:54;1.30;;;0.45;;
74679;SDS011;63211;48.548;2.704;2023-09-19T12:03:24;0.52;;;0.30;;
74679;SDS011;63211;48.548;2.704;2023-09-19T12:05:56;1.70;;;0.50;;
74679;SDS011;63211;48.548;2.704;2023-09-19T12:08:23;1.90;;;0.50;;
74679;SDS011;63211;48.548;2.704;2023-09-19T12:10:52;0.88;;;0.20;;
74679;SDS011;63211;48.548;2.704;2023-09-19T12:13:21;0.85;;;0.40;;
74679;SDS011;63211;48.548;2.704;2023-09-19T12:15:48;2.38;;;0.85;;
74679;SDS011;63211;48.548;2.704;2023-09-19T12:18:27;0.70;;;0.30;;
74679;SDS011;63211;48.548;2.704;2023-09-19T12:20:54;0.77;;;0.30;;
74679;SDS011;63211;48.548;2.704;2023-09-19T12:23:22;3.30;;;0.47;;
74679;SDS011;63211;48.548;2.704;2023-09-19T12:25:50;1.42;;;0.50;;
74679;SDS011;63211;48.548;2.704;2023-09-19T12:28:18;1.17;;;0.40;;
74679;SDS011;63211;48.548;2.704;2023-09-19T12:30:48;2.42;;;0.47;;
74679;SDS011;63211;48.548;2.704;2023-09-19T12:33:16;0.65;;;0.30;;
74679;SDS011;63211;48.548;2.704;2023-09-19T12:35:45;0.40;;;0.17;;
74679;SDS011;63211;48.548;2.704;2023-09-19T12:38:21;1.23;;;0.30;;
74679;SDS011;63211;48.548;2.704;2023-09-19T12:40:49;1.02;;;0.32;;
74679;SDS011;63211;48.548;2.704;2023-09-19T12:43:17;1.15;;;0.38;;
74679;SDS011;63211;48.548;2.704;2023-09-19T12:45:44;2.45;;;0.40;;
74679;SDS011;63211;48.548;2.704;2023-09-19T12:48:22;1.20;;;0.20;;
74679;SDS011;63211;48.548;2.704;2023-09-19T12:51:04;1.15;;;0.40;;
74679;SDS011;63211;48.548;2.704;2023-09-19T12:53:37;1.67;;;0.38;;
74679;SDS011;63211;48.548;2.704;2023-09-19T12:56:07;0.57;;;0.13;;
74679;SDS011;63211;48.548;2.704;2023-09-19T12:58:47;1.55;;;0.35;;
74679;SDS011;63211;48.548;2.704;2023-09-19T13:01:14;2.15;;;0.52;;
74679;SDS011;63211;48.548;2.704;2023-09-19T13:03:43;1.52;;;0.28;;
74679;SDS011;63211;48.548;2.704;2023-09-19T13:06:10;0.80;;;0.30;;
74679;SDS011;63211;48.548;2.704;2023-09-19T13:08:38;1.85;;;0.25;;
74679;SDS011;63211;48.548;2.704;2023-09-19T13:11:09;1.40;;;0.30;;
74679;SDS011;63211;48.548;2.704;2023-09-19T13:16:05;1.60;;;0.20;;
74679;SDS011;63211;48.548;2.704;2023-09-19T13:18:45;1.25;;;0.50;;
74679;SDS011;63211;48.548;2.704;2023-09-19T13:21:16;2.13;;;0.60;;
74679;SDS011;63211;48.548;2.704;2023-09-19T13:23:51;0.65;;;0.40;;
74679;SDS011;63211;48.548;2.704;2023-09-19T13:26:21;1.85;;;0.50;;
74679;SDS011;63211;48.548;2.704;2023-09-19T13:28:48;1.00;;;0.25;;
74679;SDS011;63211;48.548;2.704;2023-09-19T13:31:15;0.85;;;0.28;;
74679;SDS011;63211;48.548;2.704;2023-09-19T13:33:43;1.23;;;0.28;;
74679;SDS011;63211;48.548;2.704;2023-09-19T13:36:12;2.20;;;0.43;;
74679;SDS011;63211;48.548;2.704;2023-09-19T13:38:39;0.30;;;0.28;;
74679;SDS011;63211;48.548;2.704;2023-09-19T13:41:07;1.60;;;0.10;;
74679;SDS011;63211;48.548;2.704;2023-09-19T13:43:35;0.77;;;0.20;;
74679;SDS011;63211;48.548;2.704;2023-09-19T13:46:02;0.98;;;0.38;;
74679;SDS011;63211;48.548;2.704;2023-09-19T13:48:28;1.80;;;0.40;;
74679;SDS011;63211;48.548;2.704;2023-09-19T13:50:55;0.57;;;0.22;;
74679;SDS011;63211;48.548;2.704;2023-09-19T13:53:23;1.10;;;0.20;;
74679;SDS011;63211;48.548;2.704;2023-09-19T13:55:51;0.45;;;0.20;;
74679;SDS011;63211;48.548;2.704;2023-09-19T13:58:17;1.40;;;0.30;;
74679;SDS011;63211;48.548;2.704;2023-09-19T14:00:44;0.80;;;0.20;;
74679;SDS011;63211;48.548;2.704;2023-09-19T14:03:10;0.75;;;0.30;;
74679;SDS011;63211;48.548;2.704;2023-09-19T14:05:37;0.75;;;0.20;;
74679;SDS011;63211;48.548;2.704;2023-09-19T14:08:04;1.38;;;0.30;;
74679;SDS011;63211;48.548;2.704;2023-09-19T14:10:33;0.77;;;0.30;;
74679;SDS011;63211;48.548;2.704;2023-09-19T14:13:00;0.47;;;0.25;;
74679;SDS011;63211;48.548;2.704;2023-09-19T14:15:27;0.68;;;0.30;;
74679;SDS011;63211;48.548;2.704;2023-09-19T14:17:56;0.90;;;0.32;;
74679;SDS011;63211;48.548;2.704;2023-09-19T14:20:24;1.08;;;0.30;;
74679;SDS011;63211;48.548;2.704;2023-09-19T14:22:51;0.32;;;0.20;;
74679;SDS011;63211;48.548;2.704;2023-09-19T14:25:18;0.60;;;0.22;;
74679;SDS011;63211;48.548;2.704;2023-09-19T14:27:46;0.88;;;0.20;;
74679;SDS011;63211;48.548;2.704;2023-09-19T14:30:13;0.50;;;0.20;;
74679;SDS011;63211;48.548;2.704;2023-09-19T14:32:40;1.10;;;0.38;;
74679;SDS011;63211;48.548;2.704;2023-09-19T14:35:07;0.73;;;0.30;;
74679;SDS011;63211;48.548;2.704;2023-09-19T14:37:34;1.48;;;0.20;;
74679;SDS011;63211;48.548;2.704;2023-09-19T14:40:03;1.10;;;0.38;;
74679;SDS011;63211;48.548;2.704;2023-09-19T14:42:33;1.67;;;0.40;;
74679;SDS011;63211;48.548;2.704;2023-09-19T14:45:03;0.77;;;0.40;;
74679;SDS011;63211;48.548;2.704;2023-09-19T14:47:31;0.40;;;0.10;;
74679;SDS011;63211;48.548;2.704;2023-09-19T14:49:59;2.53;;;0.30;;
74679;SDS011;63211;48.548;2.704;2023-09-19T14:52:26;1.42;;;0.28;;
74679;SDS011;63211;48.548;2.704;2023-09-19T14:54:53;1.00;;;0.25;;
74679;SDS011;63211;48.548;2.704;2023-09-19T14:57:20;0.90;;;0.30;;
74679;SDS011;63211;48.548;2.704;2023-09-19T14:59:49;0.40;;;0.10;;
74679;SDS011;63211;48.548;2.704;2023-09-19T15:02:17;0.82;;;0.40;;
74679;SDS011;63211;48.548;2.704;2023-09-19T15:04:44;2.28;;;0.70;;
74679;SDS011;63211;48.548;2.704;2023-09-19T15:07:11;1.33;;;0.32;;
74679;SDS011;63211;48.548;2.704;2023-09-19T15:09:39;0.70;;;0.30;;
74679;SDS011;63211;48.548;2.704;2023-09-19T15:12:06;1.40;;;0.40;;
74679;SDS011;63211;48.548;2.704;2023-09-19T15:14:33;1.30;;;0.35;;
74679;SDS011;63211;48.548;2.704;2023-09-19T15:16:59;1.90;;;0.30;;
74679;SDS011;63211;48.548;2.704;2023-09-19T15:19:29;0.65;;;0.30;;
74679;SDS011;63211;48.548;2.704;2023-09-19T15:21:55;0.50;;;0.20;;
74679;SDS011;63211;48.548;2.704;2023-09-19T15:24:22;0.77;;;0.28;;
74679;SDS011;63211;48.548;2.704;2023-09-19T15:26:51;1.60;;;0.30;;
74679;SDS011;63211;48.548;2.704;2023-09-19T15:29:20;0.75;;;0.30;;
74679;SDS011;63211;48.548;2.704;2023-09-19T15:31:48;1.23;;;0.25;;